createdAt,value
2019-04-21T00:00:35.619Z,4.30
2019-04-21T00:03:10.042Z,4.20
2019-04-21T00:05:52.946Z,4.87
2019-04-21T00:08:25.841Z,4.63
2019-04-21T00:10:49.991Z,5.07
2019-04-21T00:13:13.526Z,5.20
2019-04-21T00:15:32.873Z,4.97
2019-04-21T00:18:03.889Z,5.07
2019-04-21T00:20:39.241Z,4.80
2019-04-21T00:23:15.541Z,5.13
2019-04-21T00:25:38.927Z,4.67
2019-04-21T00:28:16.903Z,4.73
2019-04-21T00:30:44.307Z,4.97
2019-04-21T00:33:03.094Z,5.63
2019-04-21T00:35:25.825Z,5.53
2019-04-21T00:38:14.963Z,6.43
2019-04-21T00:40:46.386Z,6.40
2019-04-21T00:43:04.630Z,5.97
2019-04-21T00:45:31.498Z,6.03
2019-04-21T00:48:16.589Z,6.00
2019-04-21T00:50:51.025Z,7.07
2019-04-21T00:53:27.290Z,6.67
2019-04-21T00:55:59.422Z,6.50
2019-04-21T00:58:28.299Z,7.77
2019-04-21T01:00:57.078Z,7.30
2019-04-21T01:03:26.091Z,7.30
2019-04-21T01:05:57.542Z,7.73
2019-04-21T01:08:19.859Z,7.13
2019-04-21T01:10:40.892Z,7.30
2019-04-21T01:13:21.614Z,7.90
2019-04-21T01:15:49.023Z,7.60
2019-04-21T01:18:16.534Z,8.07
2019-04-21T01:20:23.191Z,9.97
2019-04-21T01:22:51.511Z,8.67
2019-04-21T01:25:25.836Z,8.47
2019-04-21T01:28:03.740Z,8.57
2019-04-21T01:30:35.824Z,8.97
2019-04-21T01:33:08.177Z,8.70
2019-04-21T01:35:35.004Z,8.80
2019-04-21T01:38:12.550Z,9.63
2019-04-21T01:43:03.669Z,9.70
2019-04-21T01:45:26.654Z,9.17
2019-04-21T01:47:59.377Z,9.83
2019-04-21T01:50:28.955Z,9.27
2019-04-21T01:53:02.360Z,8.93
2019-04-21T01:56:09.307Z,9.70
2019-04-21T01:58:28.902Z,8.70
2019-04-21T02:01:10.180Z,9.27
2019-04-21T02:03:58.472Z,9.20
2019-04-21T02:06:18.545Z,9.13
2019-04-21T02:08:36.507Z,9.77
2019-04-21T02:11:12.254Z,9.57
2019-04-21T02:13:48.945Z,9.70
2019-04-21T02:16:14.029Z,8.60
2019-04-21T02:18:33.373Z,8.80
2019-04-21T02:20:55.405Z,8.93
2019-04-21T02:23:39.554Z,8.10
2019-04-21T02:26:05.011Z,10.03
2019-04-21T02:28:42.863Z,9.37
2019-04-21T02:33:47.991Z,9.60
2019-04-21T02:36:23.408Z,10.23
2019-04-21T02:38:53.010Z,8.97
2019-04-21T02:41:01.361Z,10.07
2019-04-21T02:43:38.448Z,10.20
2019-04-21T02:46:05.454Z,9.60
2019-04-21T02:48:39.094Z,8.87
2019-04-21T02:51:03.907Z,11.73
2019-04-21T02:56:00.558Z,12.73
2019-04-21T02:58:43.703Z,11.87
2019-04-21T03:01:32.047Z,12.90
2019-04-21T03:04:13.746Z,11.90
2019-04-21T03:07:01.692Z,11.43
2019-04-21T03:09:33.533Z,10.77
2019-04-21T03:12:05.257Z,11.90
2019-04-21T03:16:47.145Z,13.83
2019-04-21T03:19:28.857Z,13.33
2019-04-21T03:21:57.244Z,16.57
2019-04-21T03:24:29.426Z,13.80
2019-04-21T03:29:26.492Z,16.07
2019-04-21T03:39:09.557Z,16.40
2019-04-21T03:44:09.828Z,18.23
2019-04-21T03:46:45.544Z,18.53
2019-04-21T03:49:12.610Z,18.87
2019-04-21T03:51:38.083Z,20.20
2019-04-21T03:54:00.591Z,22.20
2019-04-21T03:56:52.145Z,20.20
2019-04-21T04:02:09.781Z,22.83
2019-04-21T04:04:53.468Z,19.87
2019-04-21T04:12:38.208Z,22.00
2019-04-21T04:15:00.653Z,24.27
2019-04-21T04:20:22.454Z,23.30
2019-04-21T04:22:41.075Z,22.93
2019-04-21T04:29:59.096Z,22.50
2019-04-21T04:32:28.766Z,22.03
2019-04-21T04:42:55.605Z,21.80
2019-04-21T04:47:53.044Z,20.43
2019-04-21T04:50:24.500Z,19.03
2019-04-21T04:52:53.896Z,21.70
2019-04-21T04:55:23.618Z,22.23
2019-04-21T04:57:55.364Z,21.60
2019-04-21T05:00:19.701Z,21.47
2019-04-21T05:05:13.801Z,21.97
2019-04-21T05:07:44.618Z,20.97
2019-04-21T05:10:34.131Z,20.93
2019-04-21T05:12:41.228Z,20.07
2019-04-21T05:17:37.959Z,21.30
2019-04-21T05:24:50.980Z,21.73
2019-04-21T05:27:34.964Z,20.83
2019-04-21T05:30:20.054Z,21.57
2019-04-21T05:32:50.517Z,20.80
2019-04-21T05:35:26.702Z,20.30
2019-04-21T05:38:06.034Z,18.77
2019-04-21T05:40:34.747Z,18.70
2019-04-21T05:43:11.813Z,18.87
2019-04-21T05:45:40.784Z,19.13
2019-04-21T05:48:19.282Z,19.33
2019-04-21T05:50:33.691Z,17.37
2019-04-21T05:53:17.669Z,18.97
2019-04-21T05:55:46.110Z,19.60
2019-04-21T05:58:19.399Z,22.43
2019-04-21T06:01:06.445Z,22.33
2019-04-21T06:03:11.583Z,21.67
2019-04-21T06:05:47.850Z,20.70
2019-04-21T06:08:09.862Z,18.37
2019-04-21T06:10:43.502Z,15.60
2019-04-21T06:13:06.096Z,15.67
2019-04-21T06:15:41.745Z,16.50
2019-04-21T06:18:05.297Z,14.87
2019-04-21T06:20:35.342Z,14.83
2019-04-21T06:22:56.545Z,14.73
2019-04-21T06:25:54.964Z,13.67
2019-04-21T06:27:57.501Z,11.00
2019-04-21T06:30:32.181Z,11.20
2019-04-21T06:32:56.725Z,10.43
2019-04-21T06:38:54.231Z,10.73
2019-04-21T06:41:21.109Z,9.63
2019-04-21T06:43:48.463Z,7.73
2019-04-21T06:46:21.347Z,7.97
2019-04-21T06:48:44.047Z,6.07
2019-04-21T06:51:16.985Z,7.20
2019-04-21T06:53:48.662Z,7.90
2019-04-21T06:56:15.159Z,7.27
2019-04-21T06:58:35.822Z,6.93
2019-04-21T07:01:09.195Z,7.50
2019-04-21T07:03:38.881Z,7.43
2019-04-21T07:06:07.986Z,6.77
2019-04-21T07:08:36.919Z,7.53
2019-04-21T07:11:03.316Z,6.47
2019-04-21T07:13:33.333Z,6.77
2019-04-21T07:16:09.483Z,6.60
2019-04-21T07:18:38.774Z,6.10
2019-04-21T07:21:01.225Z,6.80
2019-04-21T07:23:31.645Z,5.73
2019-04-21T07:25:58.081Z,7.20
2019-04-21T07:28:29.548Z,6.20
2019-04-21T07:30:59.456Z,5.57
2019-04-21T07:33:43.475Z,5.20
2019-04-21T07:35:54.110Z,6.10
2019-04-21T07:38:17.709Z,5.87
2019-04-21T07:40:42.693Z,6.80
2019-04-21T07:43:12.128Z,6.00
2019-04-21T07:45:40.569Z,5.73
2019-04-21T07:48:19.275Z,6.00
2019-04-21T07:51:17.329Z,5.97
2019-04-21T07:53:55.738Z,5.97
2019-04-21T07:56:05.971Z,6.00
2019-04-21T07:58:53.473Z,5.60
2019-04-21T08:01:22.596Z,5.77
2019-04-21T08:03:46.587Z,4.73
2019-04-21T08:06:12.771Z,5.40
2019-04-21T08:08:42.114Z,4.80
2019-04-21T08:11:10.871Z,4.30
2019-04-21T08:13:40.050Z,5.40
2019-04-21T08:16:10.882Z,5.30
2019-04-21T08:21:02.766Z,5.87
2019-04-21T08:23:34.401Z,6.20
2019-04-21T08:26:14.560Z,6.57
2019-04-21T08:28:32.368Z,5.63
2019-04-21T08:31:01.396Z,5.97
2019-04-21T08:33:47.047Z,6.17
2019-04-21T08:36:12.948Z,6.43
2019-04-21T08:38:28.691Z,6.03
2019-04-21T08:40:56.342Z,6.17
2019-04-21T08:43:36.983Z,6.23
2019-04-21T08:45:53.736Z,5.30
2019-04-21T08:48:22.509Z,5.63
2019-04-21T08:51:00.382Z,5.77
2019-04-21T08:53:19.723Z,5.80
2019-04-21T08:56:12.415Z,6.47
2019-04-21T09:01:53.261Z,4.90
2019-04-21T09:04:19.877Z,4.90
2019-04-21T09:06:59.202Z,5.40
2019-04-21T09:09:19.971Z,4.37
2019-04-21T09:11:47.304Z,4.83
2019-04-21T09:14:20.766Z,5.73
2019-04-21T09:16:44.391Z,4.40
2019-04-21T09:19:19.975Z,5.00
2019-04-21T09:21:43.736Z,4.77
2019-04-21T09:24:11.520Z,4.13
2019-04-21T09:26:43.436Z,4.53
2019-04-21T09:29:05.876Z,4.63
2019-04-21T09:31:28.674Z,5.40
2019-04-21T09:33:53.574Z,4.87
2019-04-21T09:36:21.597Z,5.30
2019-04-21T09:38:57.668Z,4.90
2019-04-21T09:41:20.193Z,5.03
2019-04-21T09:43:50.813Z,5.07
2019-04-21T09:46:16.051Z,5.83
2019-04-21T09:48:52.810Z,5.07
2019-04-21T09:51:13.062Z,4.87
2019-04-21T09:53:43.296Z,4.87
2019-04-21T09:56:14.824Z,5.30
2019-04-21T09:58:43.769Z,5.47
2019-04-21T10:01:17.228Z,4.73
2019-04-21T10:03:41.394Z,4.90
2019-04-21T10:06:05.098Z,5.40
2019-04-21T10:08:31.925Z,5.20
2019-04-21T10:10:59.267Z,5.53
2019-04-21T10:13:27.449Z,4.90
2019-04-21T10:16:17.557Z,5.40
2019-04-21T10:18:45.985Z,5.30
2019-04-21T10:21:13.381Z,5.90
2019-04-21T10:23:41.502Z,5.70
2019-04-21T10:26:08.709Z,5.17
2019-04-21T10:28:37.171Z,5.10
2019-04-21T10:31:04.882Z,5.63
2019-04-21T10:33:32.522Z,5.70
2019-04-21T10:35:59.603Z,5.33
2019-04-21T10:38:35.476Z,5.80
2019-04-21T10:40:55.166Z,5.40
2019-04-21T10:43:23.960Z,6.70
2019-04-21T10:45:50.941Z,6.07
2019-04-21T10:48:18.905Z,6.30
2019-04-21T10:50:47.233Z,5.40
2019-04-21T10:53:18.841Z,6.83
2019-04-21T10:56:00.387Z,5.67
2019-04-21T10:58:20.299Z,5.73
2019-04-21T11:00:48.428Z,5.53
2019-04-21T11:03:35.295Z,6.30
2019-04-21T11:06:03.308Z,5.90
2019-04-21T11:08:37.518Z,5.20
2019-04-21T11:10:59.669Z,6.20
2019-04-21T11:13:28.923Z,5.80
2019-04-21T11:15:57.041Z,5.83
2019-04-21T11:18:24.154Z,6.00
2019-04-21T11:20:51.266Z,5.03
2019-04-21T11:23:21.167Z,5.60
2019-04-21T11:25:48.200Z,6.07
2019-04-21T11:28:16.691Z,5.53
2019-04-21T11:30:44.533Z,5.80
2019-04-21T11:33:13.044Z,5.47
2019-04-21T11:35:41.291Z,5.53
2019-04-21T11:38:18.077Z,6.03
2019-04-21T11:40:43.430Z,6.10
2019-04-21T11:43:11.479Z,6.10
2019-04-21T11:45:39.981Z,6.40
2019-04-21T11:48:14.396Z,5.63
2019-04-21T11:50:41.487Z,6.57
2019-04-21T11:53:08.619Z,6.17
2019-04-21T11:55:39.797Z,6.13
2019-04-21T11:58:05.631Z,6.20
2019-04-21T12:00:33.599Z,6.60
2019-04-21T12:03:01.606Z,6.90
2019-04-21T12:05:29.680Z,6.20
2019-04-21T12:07:58.505Z,6.60
2019-04-21T12:10:25.403Z,6.07
2019-04-21T12:12:53.111Z,6.80
2019-04-21T12:15:20.821Z,6.40
2019-04-21T12:17:48.093Z,6.00
2019-04-21T12:20:16.676Z,6.10
2019-04-21T12:22:47.433Z,5.83
2019-04-21T12:25:15.934Z,6.20
2019-04-21T12:27:43.884Z,6.77
2019-04-21T12:30:13.579Z,6.10
2019-04-21T12:33:07.671Z,6.23
2019-04-21T12:35:35.610Z,6.33
2019-04-21T12:38:02.827Z,6.33
2019-04-21T12:40:30.681Z,5.80
2019-04-21T12:42:58.801Z,5.90
2019-04-21T12:45:26.153Z,6.17
2019-04-21T12:47:53.928Z,6.17
2019-04-21T12:50:21.465Z,6.00
2019-04-21T12:52:49.627Z,6.60
2019-04-21T12:55:17.670Z,6.17
2019-04-21T12:57:45.454Z,5.87
2019-04-21T13:00:15.687Z,6.60
2019-04-21T13:02:43.555Z,6.10
2019-04-21T13:05:11.698Z,5.83
2019-04-21T13:07:45.664Z,6.83
2019-04-21T13:10:18.152Z,6.23
2019-04-21T13:12:48.524Z,6.53
2019-04-21T13:15:19.859Z,6.73
2019-04-21T13:17:52.303Z,6.60
2019-04-21T13:20:21.058Z,6.20
2019-04-21T13:22:52.416Z,6.00
2019-04-21T13:25:20.169Z,6.10
2019-04-21T13:27:52.745Z,6.70
2019-04-21T13:30:20.567Z,6.37
2019-04-21T13:32:53.428Z,6.50
2019-04-21T13:35:26.731Z,6.97
2019-04-21T13:37:54.409Z,6.03
2019-04-21T13:40:55.805Z,5.97
2019-04-21T13:43:09.827Z,5.70
2019-04-21T13:45:36.149Z,6.73
2019-04-21T13:48:04.575Z,6.63
2019-04-21T13:50:33.178Z,6.40
2019-04-21T13:53:00.706Z,5.77
2019-04-21T13:55:27.733Z,6.13
2019-04-21T13:57:54.919Z,6.13
2019-04-21T14:00:22.025Z,6.10
2019-04-21T14:02:49.065Z,6.03
2019-04-21T14:05:16.274Z,6.20
2019-04-21T14:07:43.994Z,6.37
2019-04-21T14:10:13.783Z,6.10
2019-04-21T14:12:40.665Z,6.00
2019-04-21T14:15:08.309Z,6.30
2019-04-21T14:17:35.486Z,6.50
2019-04-21T14:20:03.494Z,6.50
2019-04-21T14:22:31.719Z,6.13
2019-04-21T14:24:59.763Z,6.37
2019-04-21T14:27:28.094Z,5.93
2019-04-21T14:29:55.545Z,6.83
2019-04-21T14:32:24.179Z,5.57
2019-04-21T14:34:53.882Z,6.50
2019-04-21T14:37:20.422Z,5.93
2019-04-21T14:39:55.639Z,5.87
2019-04-21T14:42:18.022Z,6.40
2019-04-21T14:44:45.228Z,5.57
2019-04-21T14:47:31.499Z,6.10
2019-04-21T14:50:22.322Z,6.43
2019-04-21T14:53:07.997Z,5.97
2019-04-21T14:55:37.266Z,5.67
2019-04-21T14:58:05.274Z,6.13
2019-04-21T15:00:53.286Z,5.83
2019-04-21T15:03:21.553Z,5.73
2019-04-21T15:05:49.390Z,6.17
2019-04-21T15:08:17.279Z,5.67
2019-04-21T15:10:45.186Z,6.13
2019-04-21T15:13:12.230Z,6.03
2019-04-21T15:15:39.417Z,5.90
2019-04-21T15:18:06.614Z,5.77
2019-04-21T15:20:34.216Z,6.17
2019-04-21T15:23:02.130Z,6.67
2019-04-21T15:25:30.197Z,6.00
2019-04-21T15:27:57.348Z,6.87
2019-04-21T15:30:24.784Z,6.60
2019-04-21T15:32:52.766Z,6.73
2019-04-21T15:35:19.820Z,6.37
2019-04-21T15:37:46.728Z,6.57
2019-04-21T15:40:24.107Z,5.90
2019-04-21T15:42:42.685Z,6.17
2019-04-21T15:45:10.535Z,5.97
2019-04-21T15:47:38.031Z,6.43
2019-04-21T15:50:11.925Z,6.60
2019-04-21T15:52:35.829Z,6.37
2019-04-21T15:55:08.452Z,6.50
2019-04-21T15:57:47.023Z,6.27
2019-04-21T16:00:23.009Z,7.03
2019-04-21T16:02:50.832Z,7.37
2019-04-21T16:05:19.090Z,6.27
2019-04-21T16:07:46.123Z,6.40
2019-04-21T16:10:29.932Z,6.63
2019-04-21T16:12:43.845Z,6.13
2019-04-21T16:15:12.378Z,6.20
2019-04-21T16:17:39.554Z,6.13
2019-04-21T16:20:08.132Z,5.93
2019-04-21T16:22:36.721Z,6.30
2019-04-21T16:25:05.502Z,6.30
2019-04-21T16:27:33.221Z,6.03
2019-04-21T16:30:01.811Z,6.20
2019-04-21T16:32:30.034Z,6.10
2019-04-21T16:35:03.009Z,6.13
2019-04-21T16:37:25.973Z,6.33
2019-04-21T16:39:53.684Z,8.37
2019-04-21T16:42:20.723Z,6.53
2019-04-21T16:44:48.911Z,5.80
2019-04-21T16:47:17.258Z,7.13
2019-04-21T16:49:45.501Z,6.23
2019-04-21T16:52:32.230Z,6.40
2019-04-21T16:55:08.691Z,6.07
2019-04-21T16:57:39.874Z,5.90
2019-04-21T17:00:13.848Z,6.50
2019-04-21T17:02:40.857Z,5.97
2019-04-21T17:05:09.902Z,6.00
2019-04-21T17:07:38.694Z,6.37
2019-04-21T17:10:06.577Z,5.70
2019-04-21T17:12:35.470Z,5.97
2019-04-21T17:15:18.789Z,5.47
2019-04-21T17:17:55.963Z,5.53
2019-04-21T17:20:17.650Z,5.83
2019-04-21T17:22:31.403Z,5.07
2019-04-21T17:25:00.279Z,5.43
2019-04-21T17:27:28.860Z,5.43
2019-04-21T17:29:56.758Z,5.10
2019-04-21T17:32:27.303Z,5.00
2019-04-21T17:34:54.031Z,5.20
2019-04-21T17:37:25.032Z,5.17
2019-04-21T17:39:50.082Z,4.93
2019-04-21T17:42:26.508Z,5.47
2019-04-21T17:44:46.041Z,5.07
2019-04-21T17:47:27.159Z,5.03
2019-04-21T17:49:50.721Z,5.27
2019-04-21T17:52:40.103Z,5.00
2019-04-21T17:55:27.338Z,5.17
2019-04-21T17:58:03.486Z,5.40
2019-04-21T18:00:57.539Z,6.10
2019-04-21T18:03:22.743Z,5.50
2019-04-21T18:05:39.312Z,5.97
2019-04-21T18:08:07.025Z,5.70
2019-04-21T18:10:36.075Z,5.60
2019-04-21T18:12:57.274Z,6.13
2019-04-21T18:15:35.605Z,5.50
2019-04-21T18:17:46.830Z,6.07
2019-04-21T18:20:17.502Z,7.10
2019-04-21T18:23:09.624Z,6.27
2019-04-21T18:25:44.878Z,6.60
2019-04-21T18:28:02.949Z,6.30
2019-04-21T18:30:44.525Z,5.70
2019-04-21T18:33:21.434Z,5.93
2019-04-21T18:36:22.538Z,6.03
2019-04-21T18:39:13.961Z,6.17
2019-04-21T18:41:23.667Z,6.47
2019-04-21T18:44:23.754Z,6.73
2019-04-21T18:46:55.597Z,7.03
2019-04-21T18:49:06.709Z,5.90
2019-04-21T18:51:57.151Z,6.37
2019-04-21T18:54:36.110Z,6.97
2019-04-21T18:56:57.685Z,7.27
2019-04-21T18:59:22.172Z,7.37
2019-04-21T19:01:53.761Z,7.20
2019-04-21T19:04:20.548Z,6.90
2019-04-21T19:07:02.593Z,6.47
2019-04-21T19:09:57.324Z,7.50
2019-04-21T19:11:59.591Z,7.53
2019-04-21T19:22:00.385Z,6.67
2019-04-21T19:24:33.736Z,7.47
2019-04-21T19:27:08.504Z,6.67
2019-04-21T19:29:28.859Z,7.23
2019-04-21T19:31:54.925Z,6.47
2019-04-21T19:34:14.473Z,6.27
2019-04-21T19:36:36.968Z,6.97
2019-04-21T19:39:13.685Z,6.63
2019-04-21T19:41:52.223Z,5.87
2019-04-21T19:44:24.677Z,6.30
2019-04-21T19:46:54.371Z,6.93
2019-04-21T19:49:27.872Z,6.77
2019-04-21T19:51:44.089Z,7.20
2019-04-21T19:54:11.006Z,6.20
2019-04-21T19:56:30.248Z,6.40
2019-04-21T19:58:57.244Z,6.60
2019-04-21T20:01:25.416Z,7.13
2019-04-21T20:03:56.179Z,6.53
2019-04-21T20:06:32.984Z,6.87
2019-04-21T20:09:08.338Z,6.47
2019-04-21T20:11:34.661Z,6.20
2019-04-21T20:14:33.978Z,6.87
2019-04-21T20:16:37.623Z,7.03
2019-04-21T20:18:54.589Z,6.17
2019-04-21T20:21:16.284Z,7.43
2019-04-21T20:23:45.171Z,6.23
2019-04-21T20:26:14.021Z,6.27
2019-04-21T20:28:55.158Z,5.70
2019-04-21T20:31:34.370Z,6.03
2019-04-21T20:34:00.608Z,6.10
2019-04-21T20:36:26.217Z,6.47
2019-04-21T20:38:47.076Z,6.17
2019-04-21T20:41:22.806Z,5.83
2019-04-21T20:43:54.259Z,5.83
2019-04-21T20:46:15.641Z,6.10
2019-04-21T20:48:46.505Z,6.27
2019-04-21T20:51:18.444Z,6.13
2019-04-21T20:53:44.908Z,6.67
2019-04-21T20:56:12.480Z,5.77
2019-04-21T20:58:45.199Z,6.23
2019-04-21T21:01:33.193Z,6.13
2019-04-21T21:03:46.534Z,5.90
2019-04-21T21:06:08.309Z,5.67
2019-04-21T21:08:43.443Z,5.93
2019-04-21T21:11:20.902Z,6.37
2019-04-21T21:13:48.800Z,6.60
2019-04-21T21:21:11.618Z,5.93
2019-04-21T21:23:42.517Z,6.63
2019-04-21T21:26:16.161Z,7.10
2019-04-21T21:28:32.828Z,7.10
2019-04-21T21:31:09.664Z,6.67
2019-04-21T21:33:35.470Z,7.20
2019-04-21T21:36:06.999Z,6.07
2019-04-21T21:38:31.625Z,6.47
2019-04-21T21:40:57.370Z,5.90
2019-04-21T21:43:19.485Z,6.43
2019-04-21T21:45:50.015Z,5.87
2019-04-21T21:48:27.498Z,5.97
2019-04-21T21:50:50.953Z,5.93
2019-04-21T21:53:14.248Z,5.47
2019-04-21T21:55:38.619Z,5.83
2019-04-21T21:58:07.926Z,5.53
2019-04-21T22:00:36.968Z,5.80
2019-04-21T22:03:14.748Z,5.70
2019-04-21T22:05:43.386Z,6.27
2019-04-21T22:08:02.488Z,6.40
2019-04-21T22:10:29.582Z,6.00
2019-04-21T22:13:06.037Z,5.97
2019-04-21T22:15:29.490Z,6.40
2019-04-21T22:18:16.781Z,6.57
2019-04-21T22:20:44.480Z,7.13
2019-04-21T22:22:58.392Z,6.67
2019-04-21T22:25:26.707Z,7.47
2019-04-21T22:27:50.769Z,7.20
2019-04-21T22:30:26.087Z,7.57
2019-04-21T22:32:55.288Z,7.80
2019-04-21T22:35:23.511Z,7.70
2019-04-21T22:37:56.670Z,7.70
2019-04-21T22:40:23.474Z,8.17
2019-04-21T22:42:51.257Z,7.73
2019-04-21T22:45:13.551Z,8.03
2019-04-21T22:47:42.681Z,8.37
2019-04-21T22:50:24.549Z,7.27
2019-04-21T22:52:56.647Z,7.97
2019-04-21T22:55:24.328Z,7.77
2019-04-21T22:57:53.268Z,8.53
2019-04-21T23:00:20.863Z,7.87
2019-04-21T23:02:52.583Z,6.83
2019-04-21T23:05:22.569Z,8.20
2019-04-21T23:07:51.228Z,8.30
2019-04-21T23:10:17.091Z,8.40
2019-04-21T23:12:44.146Z,7.50
2019-04-21T23:15:17.127Z,8.60
2019-04-21T23:17:59.521Z,8.20
2019-04-21T23:20:34.475Z,7.23
2019-04-21T23:23:08.334Z,8.83
2019-04-21T23:25:26.648Z,7.60
2019-04-21T23:27:57.756Z,7.97
2019-04-21T23:30:33.983Z,7.70
2019-04-21T23:32:47.905Z,7.67
2019-04-21T23:35:14.215Z,8.30
2019-04-21T23:37:41.775Z,7.57
2019-04-21T23:40:09.329Z,8.70
2019-04-21T23:42:38.037Z,7.17
2019-04-21T23:45:03.168Z,8.50
2019-04-21T23:47:43.910Z,6.97
2019-04-21T23:50:07.421Z,6.77
2019-04-21T23:52:27.892Z,7.43
2019-04-21T23:54:55.676Z,6.87
2019-04-21T23:57:31.782Z,6.60
2019-04-21T23:59:55.525Z,6.93
